sensor_id;sensor_type;location;lat;lon;timestamp;pressure;altitude;pressure_sealevel;temperature;humidity
10958;BME280;5531;42.570;23.676;2023-11-19T00:00:09;91768.88;;;1.69;92.76
10958;BME280;5531;42.570;23.676;2023-11-19T00:02:42;91771.91;;;1.64;93.93
10958;BME280;5531;42.570;23.676;2023-11-19T00:05:13;91779.41;;;1.76;92.99
10958;BME280;5531;42.570;23.676;2023-11-19T00:07:42;91773.09;;;1.70;93.02
10958;BME280;5531;42.570;23.676;2023-11-19T00:10:13;91777.31;;;1.71;93.36
10958;BME280;5531;42.570;23.676;2023-11-19T00:12:45;91781.84;;;1.77;93.45
10958;BME280;5531;42.570;23.676;2023-11-19T00:15:15;91785.25;;;1.78;92.96
10958;BME280;5531;42.570;23.676;2023-11-19T00:17:48;91780.59;;;1.81;93.37
10958;BME280;5531;42.570;23.676;2023-11-19T00:20:18;91771.81;;;1.74;92.69
10958;BME280;5531;42.570;23.676;2023-11-19T00:22:48;91787.00;;;1.77;93.46
10958;BME280;5531;42.570;23.676;2023-11-19T00:25:17;91784.66;;;1.66;93.42
10958;BME280;5531;42.570;23.676;2023-11-19T00:27:47;91798.25;;;1.68;93.14
10958;BME280;5531;42.570;23.676;2023-11-19T00:30:16;91782.97;;;1.75;93.38
10958;BME280;5531;42.570;23.676;2023-11-19T00:32:48;91789.31;;;1.62;93.67
10958;BME280;5531;42.570;23.676;2023-11-19T00:35:18;57190.16;;;-147.01;100.00
10958;BME280;5531;42.570;23.676;2023-11-19T00:37:47;57190.16;;;-147.01;100.00
10958;BME280;5531;42.570;23.676;2023-11-19T00:40:17;57190.16;;;-147.01;100.00
10958;BME280;5531;42.570;23.676;2023-11-19T00:42:49;57190.16;;;-147.01;100.00
10958;BME280;5531;42.570;23.676;2023-11-19T00:45:18;57190.16;;;-147.01;100.00
10958;BME280;5531;42.570;23.676;2023-11-19T00:47:50;57190.16;;;-147.01;100.00
10958;BME280;5531;42.570;23.676;2023-11-19T00:50:19;57190.16;;;-147.01;100.00
10958;BME280;5531;42.570;23.676;2023-11-19T00:52:48;57190.16;;;-147.01;100.00
10958;BME280;5531;42.570;23.676;2023-11-19T00:55:17;57190.16;;;-147.01;100.00
10958;BME280;5531;42.570;23.676;2023-11-19T00:57:47;57190.16;;;-147.01;100.00
10958;BME280;5531;42.570;23.676;2023-11-19T01:00:16;57190.16;;;-147.01;100.00
10958;BME280;5531;42.570;23.676;2023-11-19T01:02:52;57190.16;;;-147.01;100.00
10958;BME280;5531;42.570;23.676;2023-11-19T01:05:22;57190.16;;;-147.01;100.00
10958;BME280;5531;42.570;23.676;2023-11-19T01:07:51;57190.16;;;-147.01;100.00
10958;BME280;5531;42.570;23.676;2023-11-19T01:10:20;57190.16;;;-147.01;100.00
10958;BME280;5531;42.570;23.676;2023-11-19T01:12:50;57190.16;;;-147.01;100.00
10958;BME280;5531;42.570;23.676;2023-11-19T01:15:20;57190.16;;;-147.01;100.00
10958;BME280;5531;42.570;23.676;2023-11-19T01:17:51;57190.16;;;-147.01;100.00
10958;BME280;5531;42.570;23.676;2023-11-19T01:20:21;57190.16;;;-147.01;100.00
10958;BME280;5531;42.570;23.676;2023-11-19T01:22:50;57190.16;;;-147.01;100.00
10958;BME280;5531;42.570;23.676;2023-11-19T01:25:19;57190.16;;;-147.01;100.00
10958;BME280;5531;42.570;23.676;2023-11-19T01:27:48;57190.16;;;-147.01;100.00
10958;BME280;5531;42.570;23.676;2023-11-19T01:30:17;57190.16;;;-147.01;100.00
10958;BME280;5531;42.570;23.676;2023-11-19T01:32:47;57190.16;;;-147.01;100.00
10958;BME280;5531;42.570;23.676;2023-11-19T01:35:18;57190.16;;;-147.01;100.00
10958;BME280;5531;42.570;23.676;2023-11-19T01:37:48;57190.16;;;-147.01;100.00
10958;BME280;5531;42.570;23.676;2023-11-19T01:40:21;57190.16;;;-147.01;100.00
10958;BME280;5531;42.570;23.676;2023-11-19T01:42:50;57190.16;;;-147.01;100.00
10958;BME280;5531;42.570;23.676;2023-11-19T01:45:27;57190.16;;;-147.01;100.00
10958;BME280;5531;42.570;23.676;2023-11-19T01:47:57;57190.16;;;-147.01;100.00
10958;BME280;5531;42.570;23.676;2023-11-19T01:50:30;57190.16;;;-147.01;100.00
10958;BME280;5531;42.570;23.676;2023-11-19T01:53:01;57190.16;;;-147.01;100.00
10958;BME280;5531;42.570;23.676;2023-11-19T01:55:30;57190.16;;;-147.01;100.00
10958;BME280;5531;42.570;23.676;2023-11-19T01:58:01;57190.16;;;-147.01;100.00
10958;BME280;5531;42.570;23.676;2023-11-19T02:00:31;57190.16;;;-147.01;100.00
10958;BME280;5531;42.570;23.676;2023-11-19T02:03:02;57190.16;;;-147.01;100.00
10958;BME280;5531;42.570;23.676;2023-11-19T02:05:35;57190.16;;;-147.01;100.00
10958;BME280;5531;42.570;23.676;2023-11-19T02:08:05;57190.16;;;-147.01;100.00
10958;BME280;5531;42.570;23.676;2023-11-19T02:10:34;57190.16;;;-147.01;100.00
10958;BME280;5531;42.570;23.676;2023-11-19T02:13:04;57190.16;;;-147.01;100.00
10958;BME280;5531;42.570;23.676;2023-11-19T02:15:36;57190.16;;;-147.01;100.00
10958;BME280;5531;42.570;23.676;2023-11-19T02:18:20;57190.16;;;-147.01;100.00
10958;BME280;5531;42.570;23.676;2023-11-19T02:20:52;57190.16;;;-147.01;100.00
10958;BME280;5531;42.570;23.676;2023-11-19T02:23:22;57190.16;;;-147.01;100.00
10958;BME280;5531;42.570;23.676;2023-11-19T02:26:01;57190.16;;;-147.01;100.00
10958;BME280;5531;42.570;23.676;2023-11-19T02:28:34;57190.16;;;-147.01;100.00
10958;BME280;5531;42.570;23.676;2023-11-19T02:31:05;57190.16;;;-147.01;100.00
10958;BME280;5531;42.570;23.676;2023-11-19T02:33:35;57190.16;;;-147.01;100.00
10958;BME280;5531;42.570;23.676;2023-11-19T02:36:05;57190.16;;;-147.01;100.00
10958;BME280;5531;42.570;23.676;2023-11-19T02:38:35;57190.16;;;-147.01;100.00
10958;BME280;5531;42.570;23.676;2023-11-19T02:41:05;57190.16;;;-147.01;100.00
10958;BME280;5531;42.570;23.676;2023-11-19T02:43:38;57190.16;;;-147.01;100.00
10958;BME280;5531;42.570;23.676;2023-11-19T02:46:07;57190.16;;;-147.01;100.00
10958;BME280;5531;42.570;23.676;2023-11-19T02:48:37;57190.16;;;-147.01;100.00
10958;BME280;5531;42.570;23.676;2023-11-19T02:51:06;57190.16;;;-147.01;100.00
10958;BME280;5531;42.570;23.676;2023-11-19T02:53:37;57190.16;;;-147.01;100.00
10958;BME280;5531;42.570;23.676;2023-11-19T02:56:07;57190.16;;;-147.01;100.00
10958;BME280;5531;42.570;23.676;2023-11-19T02:58:48;57190.16;;;-147.01;100.00
10958;BME280;5531;42.570;23.676;2023-11-19T03:01:22;57190.16;;;-147.01;100.00
10958;BME280;5531;42.570;23.676;2023-11-19T03:03:55;57190.16;;;-147.01;100.00
10958;BME280;5531;42.570;23.676;2023-11-19T03:06:24;57190.16;;;-147.01;100.00
10958;BME280;5531;42.570;23.676;2023-11-19T03:08:54;57190.16;;;-147.01;100.00
10958;BME280;5531;42.570;23.676;2023-11-19T03:11:23;57190.16;;;-147.01;100.00
10958;BME280;5531;42.570;23.676;2023-11-19T03:13:55;57190.16;;;-147.01;100.00
10958;BME280;5531;42.570;23.676;2023-11-19T03:16:25;57190.16;;;-147.01;100.00
10958;BME280;5531;42.570;23.676;2023-11-19T03:18:54;57190.16;;;-147.01;100.00
10958;BME280;5531;42.570;23.676;2023-11-19T03:21:28;57190.16;;;-147.01;100.00
10958;BME280;5531;42.570;23.676;2023-11-19T03:23:57;57190.16;;;-147.01;100.00
10958;BME280;5531;42.570;23.676;2023-11-19T03:26:26;57190.16;;;-147.01;100.00
10958;BME280;5531;42.570;23.676;2023-11-19T03:28:58;57190.16;;;-147.01;100.00
10958;BME280;5531;42.570;23.676;2023-11-19T03:31:27;57190.16;;;-147.01;100.00
10958;BME280;5531;42.570;23.676;2023-11-19T03:33:57;57190.16;;;-147.01;100.00
10958;BME280;5531;42.570;23.676;2023-11-19T03:36:32;57190.16;;;-147.01;100.00
10958;BME280;5531;42.570;23.676;2023-11-19T03:39:01;57190.16;;;-147.01;100.00
10958;BME280;5531;42.570;23.676;2023-11-19T03:41:31;57190.16;;;-147.01;100.00
10958;BME280;5531;42.570;23.676;2023-11-19T03:44:03;57190.16;;;-147.01;100.00
10958;BME280;5531;42.570;23.676;2023-11-19T03:46:32;57190.16;;;-147.01;100.00
10958;BME280;5531;42.570;23.676;2023-11-19T03:49:02;57190.16;;;-147.01;100.00
10958;BME280;5531;42.570;23.676;2023-11-19T03:51:32;57190.16;;;-147.01;100.00
10958;BME280;5531;42.570;23.676;2023-11-19T03:54:02;57190.16;;;-147.01;100.00
10958;BME280;5531;42.570;23.676;2023-11-19T03:56:32;57190.16;;;-147.01;100.00
10958;BME280;5531;42.570;23.676;2023-11-19T03:59:04;57190.16;;;-147.01;100.00
10958;BME280;5531;42.570;23.676;2023-11-19T04:01:33;57190.16;;;-147.01;100.00
10958;BME280;5531;42.570;23.676;2023-11-19T04:04:03;57190.16;;;-147.01;100.00
10958;BME280;5531;42.570;23.676;2023-11-19T04:06:32;57190.16;;;-147.01;100.00
10958;BME280;5531;42.570;23.676;2023-11-19T04:09:01;57190.16;;;-147.01;100.00
10958;BME280;5531;42.570;23.676;2023-11-19T04:11:30;57190.16;;;-147.01;100.00
10958;BME280;5531;42.570;23.676;2023-11-19T04:14:00;57190.16;;;-147.01;100.00
10958;BME280;5531;42.570;23.676;2023-11-19T04:16:31;57190.16;;;-147.01;100.00
10958;BME280;5531;42.570;23.676;2023-11-19T04:19:01;57190.16;;;-147.01;100.00
10958;BME280;5531;42.570;23.676;2023-11-19T04:21:30;57190.16;;;-147.01;100.00
10958;BME280;5531;42.570;23.676;2023-11-19T04:23:59;57190.16;;;-147.01;100.00
10958;BME280;5531;42.570;23.676;2023-11-19T04:26:28;57190.16;;;-147.01;100.00
10958;BME280;5531;42.570;23.676;2023-11-19T04:28:57;57190.16;;;-147.01;100.00
10958;BME280;5531;42.570;23.676;2023-11-19T04:31:32;57190.16;;;-147.01;100.00
10958;BME280;5531;42.570;23.676;2023-11-19T04:34:01;57190.16;;;-147.01;100.00
10958;BME280;5531;42.570;23.676;2023-11-19T04:36:30;57190.16;;;-147.01;100.00
10958;BME280;5531;42.570;23.676;2023-11-19T04:38:59;57190.16;;;-147.01;100.00
10958;BME280;5531;42.570;23.676;2023-11-19T04:41:28;57190.16;;;-147.01;100.00
10958;BME280;5531;42.570;23.676;2023-11-19T04:43:57;57190.16;;;-147.01;100.00
10958;BME280;5531;42.570;23.676;2023-11-19T04:46:26;57190.16;;;-147.01;100.00
10958;BME280;5531;42.570;23.676;2023-11-19T04:48:58;57190.16;;;-147.01;100.00
10958;BME280;5531;42.570;23.676;2023-11-19T04:51:27;57190.16;;;-147.01;100.00
10958;BME280;5531;42.570;23.676;2023-11-19T04:53:56;57190.16;;;-147.01;100.00
10958;BME280;5531;42.570;23.676;2023-11-19T04:56:25;57190.16;;;-147.01;100.00
10958;BME280;5531;42.570;23.676;2023-11-19T04:58:54;57190.16;;;-147.01;100.00
10958;BME280;5531;42.570;23.676;2023-11-19T05:01:23;57190.16;;;-147.01;100.00
10958;BME280;5531;42.570;23.676;2023-11-19T05:03:53;57190.16;;;-147.01;100.00
10958;BME280;5531;42.570;23.676;2023-11-19T05:06:26;57190.16;;;-147.01;100.00
10958;BME280;5531;42.570;23.676;2023-11-19T05:08:56;57190.16;;;-147.01;100.00
10958;BME280;5531;42.570;23.676;2023-11-19T05:11:27;57190.16;;;-147.01;100.00
10958;BME280;5531;42.570;23.676;2023-11-19T05:13:56;57190.16;;;-147.01;100.00
10958;BME280;5531;42.570;23.676;2023-11-19T05:16:25;57190.16;;;-147.01;100.00
10958;BME280;5531;42.570;23.676;2023-11-19T05:18:55;57190.16;;;-147.01;100.00
10958;BME280;5531;42.570;23.676;2023-11-19T05:21:27;57190.16;;;-147.01;100.00
10958;BME280;5531;42.570;23.676;2023-11-19T05:23:56;57190.16;;;-147.01;100.00
10958;BME280;5531;42.570;23.676;2023-11-19T05:26:25;57190.16;;;-147.01;100.00
10958;BME280;5531;42.570;23.676;2023-11-19T05:28:54;57190.16;;;-147.01;100.00
10958;BME280;5531;42.570;23.676;2023-11-19T05:31:23;57190.16;;;-147.01;100.00
10958;BME280;5531;42.570;23.676;2023-11-19T05:33:53;57190.16;;;-147.01;100.00
10958;BME280;5531;42.570;23.676;2023-11-19T05:36:22;57190.16;;;-147.01;100.00
10958;BME280;5531;42.570;23.676;2023-11-19T05:38:54;57190.16;;;-147.01;100.00
10958;BME280;5531;42.570;23.676;2023-11-19T05:41:23;57190.16;;;-147.01;100.00
10958;BME280;5531;42.570;23.676;2023-11-19T05:43:52;57190.16;;;-147.01;100.00
10958;BME280;5531;42.570;23.676;2023-11-19T05:46:21;57190.16;;;-147.01;100.00
10958;BME280;5531;42.570;23.676;2023-11-19T05:48:51;57190.16;;;-147.01;100.00
10958;BME280;5531;42.570;23.676;2023-11-19T05:51:20;57190.16;;;-147.01;100.00
10958;BME280;5531;42.570;23.676;2023-11-19T05:53:49;57190.16;;;-147.01;100.00
10958;BME280;5531;42.570;23.676;2023-11-19T05:56:23;57190.16;;;-147.01;100.00
10958;BME280;5531;42.570;23.676;2023-11-19T05:58:58;57190.16;;;-147.01;100.00
10958;BME280;5531;42.570;23.676;2023-11-19T06:01:29;57190.16;;;-147.01;100.00
10958;BME280;5531;42.570;23.676;2023-11-19T06:03:58;57190.16;;;-147.01;100.00
10958;BME280;5531;42.570;23.676;2023-11-19T06:06:28;57190.16;;;-147.01;100.00
10958;BME280;5531;42.570;23.676;2023-11-19T06:08:57;57190.16;;;-147.01;100.00
10958;BME280;5531;42.570;23.676;2023-11-19T06:11:30;57190.16;;;-147.01;100.00
10958;BME280;5531;42.570;23.676;2023-11-19T06:13:59;57190.16;;;-147.01;100.00
10958;BME280;5531;42.570;23.676;2023-11-19T06:16:29;57190.16;;;-147.01;100.00
10958;BME280;5531;42.570;23.676;2023-11-19T06:18:58;57190.16;;;-147.01;100.00
10958;BME280;5531;42.570;23.676;2023-11-19T06:21:27;57190.16;;;-147.01;100.00
10958;BME280;5531;42.570;23.676;2023-11-19T06:23:56;57190.16;;;-147.01;100.00
10958;BME280;5531;42.570;23.676;2023-11-19T06:26:25;57190.16;;;-147.01;100.00
10958;BME280;5531;42.570;23.676;2023-11-19T06:28:57;57190.16;;;-147.01;100.00
10958;BME280;5531;42.570;23.676;2023-11-19T06:31:26;57190.16;;;-147.01;100.00
10958;BME280;5531;42.570;23.676;2023-11-19T06:33:55;57190.16;;;-147.01;100.00
10958;BME280;5531;42.570;23.676;2023-11-19T06:36:24;57190.16;;;-147.01;100.00
10958;BME280;5531;42.570;23.676;2023-11-19T06:38:53;57190.16;;;-147.01;100.00
10958;BME280;5531;42.570;23.676;2023-11-19T06:41:23;57190.16;;;-147.01;100.00
10958;BME280;5531;42.570;23.676;2023-11-19T06:43:52;57190.16;;;-147.01;100.00
10958;BME280;5531;42.570;23.676;2023-11-19T06:46:23;57190.16;;;-147.01;100.00
10958;BME280;5531;42.570;23.676;2023-11-19T06:48:53;57190.16;;;-147.01;100.00
10958;BME280;5531;42.570;23.676;2023-11-19T06:51:22;57190.16;;;-147.01;100.00
10958;BME280;5531;42.570;23.676;2023-11-19T06:53:51;57190.16;;;-147.01;100.00
10958;BME280;5531;42.570;23.676;2023-11-19T06:56:21;57190.16;;;-147.01;100.00
10958;BME280;5531;42.570;23.676;2023-11-19T06:58:50;57190.16;;;-147.01;100.00
10958;BME280;5531;42.570;23.676;2023-11-19T07:01:23;57190.16;;;-147.01;100.00
10958;BME280;5531;42.570;23.676;2023-11-19T07:03:52;57190.16;;;-147.01;100.00
10958;BME280;5531;42.570;23.676;2023-11-19T07:06:23;57190.16;;;-147.01;100.00
10958;BME280;5531;42.570;23.676;2023-11-19T07:08:52;57190.16;;;-147.01;100.00
10958;BME280;5531;42.570;23.676;2023-11-19T07:11:22;57190.16;;;-147.01;100.00
10958;BME280;5531;42.570;23.676;2023-11-19T07:13:51;57190.16;;;-147.01;100.00
10958;BME280;5531;42.570;23.676;2023-11-19T07:16:23;57190.16;;;-147.01;100.00
10958;BME280;5531;42.570;23.676;2023-11-19T07:18:52;57190.16;;;-147.01;100.00
10958;BME280;5531;42.570;23.676;2023-11-19T07:21:21;57190.16;;;-147.01;100.00
10958;BME280;5531;42.570;23.676;2023-11-19T07:23:50;57190.16;;;-147.01;100.00
10958;BME280;5531;42.570;23.676;2023-11-19T07:26:19;57190.16;;;-147.01;100.00
10958;BME280;5531;42.570;23.676;2023-11-19T07:28:48;57190.16;;;-147.01;100.00
10958;BME280;5531;42.570;23.676;2023-11-19T07:31:17;57190.16;;;-147.01;100.00
10958;BME280;5531;42.570;23.676;2023-11-19T07:33:50;57190.16;;;-147.01;100.00
10958;BME280;5531;42.570;23.676;2023-11-19T07:36:19;57190.16;;;-147.01;100.00
10958;BME280;5531;42.570;23.676;2023-11-19T07:38:48;57190.16;;;-147.01;100.00
10958;BME280;5531;42.570;23.676;2023-11-19T07:41:18;57190.16;;;-147.01;100.00
10958;BME280;5531;42.570;23.676;2023-11-19T07:43:47;57190.16;;;-147.01;100.00
10958;BME280;5531;42.570;23.676;2023-11-19T07:46:17;57190.16;;;-147.01;100.00
10958;BME280;5531;42.570;23.676;2023-11-19T07:48:50;57190.16;;;-147.01;100.00
10958;BME280;5531;42.570;23.676;2023-11-19T07:51:19;57190.16;;;-147.01;100.00
10958;BME280;5531;42.570;23.676;2023-11-19T07:53:48;57190.16;;;-147.01;100.00
10958;BME280;5531;42.570;23.676;2023-11-19T07:56:17;57190.16;;;-147.01;100.00
10958;BME280;5531;42.570;23.676;2023-11-19T07:58:46;57190.16;;;-147.01;100.00
10958;BME280;5531;42.570;23.676;2023-11-19T08:01:16;57190.16;;;-147.01;100.00
10958;BME280;5531;42.570;23.676;2023-11-19T08:03:45;57190.16;;;-147.01;100.00
10958;BME280;5531;42.570;23.676;2023-11-19T08:06:17;57190.16;;;-147.01;100.00
10958;BME280;5531;42.570;23.676;2023-11-19T08:08:46;57190.16;;;-147.01;100.00
10958;BME280;5531;42.570;23.676;2023-11-19T08:11:15;57190.16;;;-147.01;100.00
10958;BME280;5531;42.570;23.676;2023-11-19T08:13:45;57190.16;;;-147.01;100.00
10958;BME280;5531;42.570;23.676;2023-11-19T08:16:14;57190.16;;;-147.01;100.00
10958;BME280;5531;42.570;23.676;2023-11-19T08:18:44;57190.16;;;-147.01;100.00
10958;BME280;5531;42.570;23.676;2023-11-19T08:21:16;57190.16;;;-147.01;100.00
10958;BME280;5531;42.570;23.676;2023-11-19T08:23:46;57190.16;;;-147.01;100.00
10958;BME280;5531;42.570;23.676;2023-11-19T08:26:15;57190.16;;;-147.01;100.00
10958;BME280;5531;42.570;23.676;2023-11-19T08:28:45;57190.16;;;-147.01;100.00
10958;BME280;5531;42.570;23.676;2023-11-19T08:31:14;57190.16;;;-147.01;100.00
10958;BME280;5531;42.570;23.676;2023-11-19T08:33:43;57190.16;;;-147.01;100.00
10958;BME280;5531;42.570;23.676;2023-11-19T08:36:19;57190.16;;;-147.01;100.00
10958;BME280;5531;42.570;23.676;2023-11-19T08:38:48;57190.16;;;-147.01;100.00
10958;BME280;5531;42.570;23.676;2023-11-19T08:41:17;57190.16;;;-147.01;100.00
10958;BME280;5531;42.570;23.676;2023-11-19T08:43:47;57190.16;;;-147.01;100.00
10958;BME280;5531;42.570;23.676;2023-11-19T08:46:17;57190.16;;;-147.01;100.00
10958;BME280;5531;42.570;23.676;2023-11-19T08:48:58;57190.16;;;-147.01;100.00
10958;BME280;5531;42.570;23.676;2023-11-19T08:51:31;57190.16;;;-147.01;100.00
10958;BME280;5531;42.570;23.676;2023-11-19T08:54:00;57190.16;;;-147.01;100.00
10958;BME280;5531;42.570;23.676;2023-11-19T08:56:29;57190.16;;;-147.01;100.00
10958;BME280;5531;42.570;23.676;2023-11-19T08:59:00;57190.16;;;-147.01;100.00
10958;BME280;5531;42.570;23.676;2023-11-19T09:01:30;57190.16;;;-147.01;100.00
10958;BME280;5531;42.570;23.676;2023-11-19T09:03:59;57190.16;;;-147.01;100.00
10958;BME280;5531;42.570;23.676;2023-11-19T09:06:31;57190.16;;;-147.01;100.00
10958;BME280;5531;42.570;23.676;2023-11-19T09:09:00;57190.16;;;-147.01;100.00
10958;BME280;5531;42.570;23.676;2023-11-19T09:11:31;57190.16;;;-147.01;100.00
10958;BME280;5531;42.570;23.676;2023-11-19T09:14:00;57190.16;;;-147.01;100.00
10958;BME280;5531;42.570;23.676;2023-11-19T09:16:30;57190.16;;;-147.01;100.00
10958;BME280;5531;42.570;23.676;2023-11-19T09:18:59;57190.16;;;-147.01;100.00
10958;BME280;5531;42.570;23.676;2023-11-19T09:21:31;57190.16;;;-147.01;100.00
10958;BME280;5531;42.570;23.676;2023-11-19T09:24:04;57190.16;;;-147.01;100.00
10958;BME280;5531;42.570;23.676;2023-11-19T09:26:33;57190.16;;;-147.01;100.00
10958;BME280;5531;42.570;23.676;2023-11-19T09:29:05;57190.16;;;-147.01;100.00
10958;BME280;5531;42.570;23.676;2023-11-19T09:31:34;57190.16;;;-147.01;100.00
10958;BME280;5531;42.570;23.676;2023-11-19T09:34:03;57190.16;;;-147.01;100.00
10958;BME280;5531;42.570;23.676;2023-11-19T09:36:35;57190.16;;;-147.01;100.00
10958;BME280;5531;42.570;23.676;2023-11-19T09:39:07;57190.16;;;-147.01;100.00
10958;BME280;5531;42.570;23.676;2023-11-19T09:41:37;57190.16;;;-147.01;100.00
10958;BME280;5531;42.570;23.676;2023-11-19T09:44:06;57190.16;;;-147.01;100.00
10958;BME280;5531;42.570;23.676;2023-11-19T09:46:38;57190.16;;;-147.01;100.00
10958;BME280;5531;42.570;23.676;2023-11-19T09:49:08;57190.16;;;-147.01;100.00
10958;BME280;5531;42.570;23.676;2023-11-19T09:51:41;57190.16;;;-147.01;100.00
10958;BME280;5531;42.570;23.676;2023-11-19T09:54:10;57190.16;;;-147.01;100.00
10958;BME280;5531;42.570;23.676;2023-11-19T09:56:40;57190.16;;;-147.01;100.00
10958;BME280;5531;42.570;23.676;2023-11-19T09:59:10;57190.16;;;-147.01;100.00
10958;BME280;5531;42.570;23.676;2023-11-19T10:01:40;57190.16;;;-147.01;100.00
10958;BME280;5531;42.570;23.676;2023-11-19T10:04:09;57190.16;;;-147.01;100.00
10958;BME280;5531;42.570;23.676;2023-11-19T10:06:43;57190.16;;;-147.01;100.00
10958;BME280;5531;42.570;23.676;2023-11-19T10:09:13;57190.16;;;-147.01;100.00
10958;BME280;5531;42.570;23.676;2023-11-19T10:11:42;57190.16;;;-147.01;100.00
10958;BME280;5531;42.570;23.676;2023-11-19T10:14:12;57190.16;;;-147.01;100.00
10958;BME280;5531;42.570;23.676;2023-11-19T10:16:41;57190.16;;;-147.01;100.00
10958;BME280;5531;42.570;23.676;2023-11-19T10:19:19;57190.16;;;-147.01;100.00
10958;BME280;5531;42.570;23.676;2023-11-19T10:21:52;57190.16;;;-147.01;100.00
10958;BME280;5531;42.570;23.676;2023-11-19T10:24:31;57190.16;;;-147.01;100.00
10958;BME280;5531;42.570;23.676;2023-11-19T10:27:01;57190.16;;;-147.01;100.00
10958;BME280;5531;42.570;23.676;2023-11-19T10:29:30;57190.16;;;-147.01;100.00
10958;BME280;5531;42.570;23.676;2023-11-19T10:31:59;57190.16;;;-147.01;100.00
10958;BME280;5531;42.570;23.676;2023-11-19T10:34:28;57190.16;;;-147.01;100.00
10958;BME280;5531;42.570;23.676;2023-11-19T10:37:00;57190.16;;;-147.01;100.00
10958;BME280;5531;42.570;23.676;2023-11-19T10:39:51;57190.16;;;-147.01;100.00
10958;BME280;5531;42.570;23.676;2023-11-19T10:42:22;57190.16;;;-147.01;100.00
10958;BME280;5531;42.570;23.676;2023-11-19T10:44:51;57190.16;;;-147.01;100.00
10958;BME280;5531;42.570;23.676;2023-11-19T10:47:20;57190.16;;;-147.01;100.00
10958;BME280;5531;42.570;23.676;2023-11-19T10:49:51;57190.16;;;-147.01;100.00
10958;BME280;5531;42.570;23.676;2023-11-19T10:52:25;57190.16;;;-147.01;100.00
10958;BME280;5531;42.570;23.676;2023-11-19T10:54:56;57190.16;;;-147.01;100.00
10958;BME280;5531;42.570;23.676;2023-11-19T10:57:32;57190.16;;;-147.01;100.00
10958;BME280;5531;42.570;23.676;2023-11-19T11:00:07;57190.16;;;-147.01;100.00
10958;BME280;5531;42.570;23.676;2023-11-19T11:02:41;57190.16;;;-147.01;100.00
10958;BME280;5531;42.570;23.676;2023-11-19T11:05:14;57190.16;;;-147.01;100.00
10958;BME280;5531;42.570;23.676;2023-11-19T11:07:49;57190.16;;;-147.01;100.00
10958;BME280;5531;42.570;23.676;2023-11-19T11:10:20;57190.16;;;-147.01;100.00
10958;BME280;5531;42.570;23.676;2023-11-19T11:12:53;57190.16;;;-147.01;100.00
10958;BME280;5531;42.570;23.676;2023-11-19T11:15:27;57190.16;;;-147.01;100.00
10958;BME280;5531;42.570;23.676;2023-11-19T11:17:59;57190.16;;;-147.01;100.00
10958;BME280;5531;42.570;23.676;2023-11-19T11:20:30;57190.16;;;-147.01;100.00
10958;BME280;5531;42.570;23.676;2023-11-19T11:23:26;57190.16;;;-147.01;100.00
10958;BME280;5531;42.570;23.676;2023-11-19T11:26:09;57190.16;;;-147.01;100.00
10958;BME280;5531;42.570;23.676;2023-11-19T11:29:01;57190.16;;;-147.01;100.00
10958;BME280;5531;42.570;23.676;2023-11-19T11:31:42;57190.16;;;-147.01;100.00
10958;BME280;5531;42.570;23.676;2023-11-19T11:34:31;57190.16;;;-147.01;100.00
10958;BME280;5531;42.570;23.676;2023-11-19T11:37:10;57190.16;;;-147.01;100.00
10958;BME280;5531;42.570;23.676;2023-11-19T11:39:50;57190.16;;;-147.01;100.00
10958;BME280;5531;42.570;23.676;2023-11-19T11:42:35;57190.16;;;-147.01;100.00
10958;BME280;5531;42.570;23.676;2023-11-19T11:45:06;57190.16;;;-147.01;100.00
10958;BME280;5531;42.570;23.676;2023-11-19T11:48:09;57190.16;;;-147.01;100.00
10958;BME280;5531;42.570;23.676;2023-11-19T11:50:56;57190.16;;;-147.01;100.00
10958;BME280;5531;42.570;23.676;2023-11-19T11:53:26;57190.16;;;-147.01;100.00
10958;BME280;5531;42.570;23.676;2023-11-19T11:55:58;57190.16;;;-147.01;100.00
10958;BME280;5531;42.570;23.676;2023-11-19T11:58:35;57190.16;;;-147.01;100.00
10958;BME280;5531;42.570;23.676;2023-11-19T12:01:08;57190.16;;;-147.01;100.00
10958;BME280;5531;42.570;23.676;2023-11-19T12:03:46;57190.16;;;-147.01;100.00
10958;BME280;5531;42.570;23.676;2023-11-19T12:06:15;57190.16;;;-147.01;100.00
10958;BME280;5531;42.570;23.676;2023-11-19T12:08:44;57190.16;;;-147.01;100.00
10958;BME280;5531;42.570;23.676;2023-11-19T12:11:16;57190.16;;;-147.01;100.00
10958;BME280;5531;42.570;23.676;2023-11-19T12:13:56;57190.16;;;-147.01;100.00
10958;BME280;5531;42.570;23.676;2023-11-19T12:16:28;57190.16;;;-147.01;100.00
10958;BME280;5531;42.570;23.676;2023-11-19T12:19:03;57190.16;;;-147.01;100.00
10958;BME280;5531;42.570;23.676;2023-11-19T12:21:33;57190.16;;;-147.01;100.00
10958;BME280;5531;42.570;23.676;2023-11-19T12:24:04;57190.16;;;-147.01;100.00
10958;BME280;5531;42.570;23.676;2023-11-19T12:26:38;57190.16;;;-147.01;100.00
10958;BME280;5531;42.570;23.676;2023-11-19T12:29:07;57190.16;;;-147.01;100.00
10958;BME280;5531;42.570;23.676;2023-11-19T12:31:37;57190.16;;;-147.01;100.00
10958;BME280;5531;42.570;23.676;2023-11-19T12:34:09;57190.16;;;-147.01;100.00
10958;BME280;5531;42.570;23.676;2023-11-19T12:36:41;57190.16;;;-147.01;100.00
10958;BME280;5531;42.570;23.676;2023-11-19T12:39:11;57190.16;;;-147.01;100.00
10958;BME280;5531;42.570;23.676;2023-11-19T12:41:55;57190.16;;;-147.01;100.00
10958;BME280;5531;42.570;23.676;2023-11-19T12:44:25;57190.16;;;-147.01;100.00
10958;BME280;5531;42.570;23.676;2023-11-19T12:47:01;57190.16;;;-147.01;100.00
10958;BME280;5531;42.570;23.676;2023-11-19T12:49:31;57190.16;;;-147.01;100.00
10958;BME280;5531;42.570;23.676;2023-11-19T12:52:01;57190.16;;;-147.01;100.00